createdAt,value
2019-02-06T00:02:00.837Z,82.36
2019-02-06T00:04:32.874Z,82.63
2019-02-06T00:07:03.743Z,83.07
2019-02-06T00:09:34.729Z,82.52
2019-02-06T00:12:05.556Z,82.49
2019-02-06T00:14:36.801Z,82.34
2019-02-06T00:17:08.102Z,83.08
2019-02-06T00:19:39.226Z,84.00
2019-02-06T00:22:11.122Z,84.76
2019-02-06T00:24:42.026Z,84.75
2019-02-06T00:27:12.925Z,84.60
2019-02-06T00:29:44.197Z,84.67
2019-02-06T00:32:15.262Z,84.82
2019-02-06T00:34:46.474Z,84.56
2019-02-06T00:37:17.351Z,84.13
2019-02-06T00:39:49.365Z,84.11
2019-02-06T00:42:20.457Z,84.15
2019-02-06T00:44:51.469Z,83.94
2019-02-06T00:47:22.250Z,83.87
2019-02-06T00:49:53.309Z,84.12
2019-02-06T00:52:24.116Z,83.79
2019-02-06T00:54:55.209Z,83.23
2019-02-06T00:57:26.111Z,83.24
2019-02-06T00:59:58.510Z,83.72
2019-02-06T01:02:29.601Z,83.56
2019-02-06T01:05:00.602Z,83.76
2019-02-06T01:07:31.408Z,83.43
2019-02-06T01:10:03.276Z,83.24
2019-02-06T01:12:34.106Z,83.19
2019-02-06T01:15:05.466Z,82.95
2019-02-06T01:17:36.526Z,82.84
2019-02-06T01:20:08.186Z,82.99
2019-02-06T01:22:39.271Z,82.57
2019-02-06T01:25:11.894Z,82.97
2019-02-06T01:27:42.788Z,82.75
2019-02-06T01:30:17.280Z,82.36
2019-02-06T01:32:48.150Z,82.61
2019-02-06T01:35:19.469Z,81.94
2019-02-06T01:37:50.425Z,81.75
2019-02-06T01:40:21.510Z,81.50
2019-02-06T01:42:52.413Z,82.14
2019-02-06T01:45:23.470Z,82.08
2019-02-06T01:47:54.301Z,81.80
2019-02-06T01:50:25.311Z,81.56
2019-02-06T01:52:56.081Z,81.88
2019-02-06T01:55:27.253Z,81.50
2019-02-06T01:57:58.183Z,82.00
2019-02-06T02:00:29.387Z,82.34
2019-02-06T02:03:00.452Z,82.50
2019-02-06T02:05:31.504Z,82.18
2019-02-06T02:08:02.406Z,82.36
2019-02-06T02:10:33.592Z,82.70
2019-02-06T02:13:05.096Z,82.69
2019-02-06T02:15:36.305Z,82.65
2019-02-06T02:18:07.618Z,82.87
2019-02-06T02:20:38.509Z,83.50
2019-02-06T02:23:09.476Z,83.83
2019-02-06T02:25:40.519Z,83.47
2019-02-06T02:28:11.468Z,83.00
2019-02-06T02:30:48.849Z,83.31
2019-02-06T02:33:19.793Z,83.47
2019-02-06T02:35:51.889Z,83.53
2019-02-06T02:38:22.797Z,83.27
2019-02-06T02:40:54.189Z,83.16
2019-02-06T02:43:25.079Z,82.87
2019-02-06T02:45:56.549Z,82.24
2019-02-06T02:48:27.368Z,82.59
2019-02-06T02:50:58.265Z,82.01
2019-02-06T02:53:29.059Z,82.12
2019-02-06T02:56:00.139Z,82.63
2019-02-06T02:58:31.018Z,82.71
2019-02-06T03:01:20.018Z,82.92
2019-02-06T03:04:10.171Z,81.67
2019-02-06T03:06:42.764Z,81.78
2019-02-06T03:09:14.105Z,82.70
2019-02-06T03:11:45.110Z,82.46
2019-02-06T03:14:16.170Z,82.77
2019-02-06T03:16:47.473Z,82.24
2019-02-06T03:19:18.269Z,81.32
2019-02-06T03:21:49.271Z,81.32
2019-02-06T03:24:20.237Z,82.04
2019-02-06T03:26:51.156Z,82.75
2019-02-06T03:29:22.111Z,82.91
2019-02-06T03:31:53.138Z,82.56
2019-02-06T03:34:24.007Z,82.05
2019-02-06T03:36:54.998Z,82.05
2019-02-06T03:39:25.781Z,82.54
2019-02-06T03:41:56.759Z,82.54
2019-02-06T03:44:27.644Z,82.69
2019-02-06T03:46:58.548Z,82.69
2019-02-06T03:49:29.421Z,82.47
2019-02-06T03:52:01.691Z,82.19
2019-02-06T03:54:32.844Z,82.42
2019-02-06T03:57:03.735Z,82.54
2019-02-06T03:59:34.607Z,82.70
2019-02-06T04:02:05.685Z,82.55
2019-02-06T04:04:36.602Z,82.79
2019-02-06T04:07:07.508Z,82.79
2019-02-06T04:09:38.379Z,82.64
2019-02-06T04:12:10.071Z,82.58
2019-02-06T04:14:40.955Z,82.58
2019-02-06T04:17:11.770Z,83.01
2019-02-06T04:19:42.640Z,83.05
2019-02-06T04:22:13.654Z,83.05
2019-02-06T04:24:44.727Z,82.94
2019-02-06T04:27:15.907Z,82.64
2019-02-06T04:29:46.895Z,82.79
2019-02-06T04:32:18.186Z,82.79
2019-02-06T04:34:49.185Z,82.17
2019-02-06T04:37:20.177Z,83.35
2019-02-06T04:39:50.954Z,82.96
2019-02-06T04:42:22.671Z,82.96
2019-02-06T04:44:53.644Z,83.05
2019-02-06T04:47:24.955Z,83.17
2019-02-06T04:49:55.759Z,82.43
2019-02-06T04:52:26.801Z,82.43
2019-02-06T04:54:57.637Z,81.91
2019-02-06T04:57:28.688Z,81.91
2019-02-06T04:59:59.694Z,82.36
2019-02-06T05:02:30.682Z,82.36
2019-02-06T05:05:01.470Z,82.42
2019-02-06T05:07:32.457Z,81.67
2019-02-06T05:10:03.361Z,81.99
2019-02-06T05:12:35.589Z,81.99
2019-02-06T05:15:06.809Z,82.19
2019-02-06T05:17:37.922Z,82.67
2019-02-06T05:20:29.449Z,83.12
2019-02-06T05:23:00.476Z,83.12
2019-02-06T05:25:31.512Z,82.17
2019-02-06T05:28:02.345Z,82.17
2019-02-06T05:30:33.297Z,83.41
2019-02-06T05:33:04.283Z,83.41
2019-02-06T05:35:35.366Z,82.87
2019-02-06T05:38:06.570Z,83.06
2019-02-06T05:40:37.353Z,82.78
2019-02-06T05:43:08.338Z,82.85
2019-02-06T05:45:39.220Z,82.70
2019-02-06T05:48:09.958Z,82.70
2019-02-06T05:50:40.794Z,82.41
2019-02-06T05:53:11.977Z,82.41
2019-02-06T05:55:42.888Z,82.63
2019-02-06T05:58:13.935Z,82.53
2019-02-06T06:00:47.241Z,82.49
2019-02-06T06:03:18.217Z,82.40
2019-02-06T06:05:49.079Z,82.37
2019-02-06T06:08:20.003Z,82.37
2019-02-06T06:10:51.065Z,82.58
2019-02-06T06:13:22.087Z,83.17
2019-02-06T06:15:53.042Z,83.17
2019-02-06T06:18:24.063Z,82.36
2019-02-06T06:20:55.142Z,82.36
2019-02-06T06:23:26.212Z,82.75
2019-02-06T06:25:57.167Z,82.89
2019-02-06T06:28:28.204Z,82.89
2019-02-06T06:30:59.101Z,82.48
2019-02-06T06:33:30.386Z,82.02
2019-02-06T06:36:01.267Z,81.98
2019-02-06T06:38:33.180Z,81.98
2019-02-06T06:41:04.168Z,81.48
2019-02-06T06:43:35.165Z,81.99
2019-02-06T06:46:06.245Z,81.99
2019-02-06T06:48:37.447Z,82.17
2019-02-06T06:51:08.229Z,82.39
2019-02-06T06:53:39.237Z,82.49
2019-02-06T06:56:10.114Z,82.00
2019-02-06T06:58:41.101Z,82.33
2019-02-06T07:01:12.421Z,82.36
2019-02-06T07:03:43.296Z,82.36
2019-02-06T07:06:14.165Z,83.71
2019-02-06T07:08:45.358Z,85.02
2019-02-06T07:11:16.167Z,85.02
2019-02-06T07:13:47.258Z,85.90
2019-02-06T07:16:18.134Z,86.19
2019-02-06T07:18:49.025Z,85.90
2019-02-06T07:21:19.912Z,85.91
2019-02-06T07:23:50.998Z,85.98
2019-02-06T07:26:21.811Z,85.98
2019-02-06T07:28:52.861Z,85.31
2019-02-06T07:31:23.765Z,85.88
2019-02-06T07:33:54.859Z,85.88
2019-02-06T07:36:25.760Z,86.27
2019-02-06T07:38:57.040Z,86.27
2019-02-06T07:41:28.229Z,86.08
2019-02-06T07:43:59.150Z,86.08
2019-02-06T07:46:30.046Z,85.79
2019-02-06T07:49:01.012Z,85.49
2019-02-06T07:51:31.787Z,85.49
2019-02-06T07:54:02.787Z,85.29
2019-02-06T07:56:33.562Z,85.04
2019-02-06T07:59:04.742Z,85.04
2019-02-06T08:01:35.657Z,84.86
2019-02-06T08:04:06.810Z,84.99
2019-02-06T08:06:37.632Z,85.06
2019-02-06T08:09:10.261Z,85.16
2019-02-06T08:11:41.137Z,85.15
2019-02-06T08:14:12.235Z,85.21
2019-02-06T08:16:43.032Z,85.15
2019-02-06T08:19:14.047Z,85.15
2019-02-06T08:21:45.297Z,85.48
2019-02-06T08:24:16.272Z,85.55
2019-02-06T08:26:47.174Z,85.70
2019-02-06T08:29:18.275Z,85.66
2019-02-06T08:31:49.074Z,86.07
2019-02-06T08:34:20.059Z,86.03
2019-02-06T08:36:50.954Z,86.05
2019-02-06T08:39:22.684Z,86.25
2019-02-06T08:41:53.625Z,85.90
2019-02-06T08:44:24.447Z,85.91
2019-02-06T08:46:55.521Z,85.62
2019-02-06T08:49:26.412Z,85.89
2019-02-06T08:51:57.180Z,85.37
2019-02-06T08:54:28.336Z,85.64
2019-02-06T08:56:59.285Z,85.76
2019-02-06T08:59:30.265Z,85.12
2019-02-06T09:02:01.561Z,85.25
2019-02-06T09:04:32.447Z,85.24
2019-02-06T09:07:03.325Z,84.96
2019-02-06T09:09:34.405Z,83.84
2019-02-06T09:12:05.302Z,84.10
2019-02-06T09:14:36.710Z,84.10
2019-02-06T09:17:07.708Z,84.14
2019-02-06T09:19:38.696Z,83.81
2019-02-06T09:22:09.589Z,83.84
2019-02-06T09:24:40.648Z,84.04
2019-02-06T09:27:11.651Z,84.87
2019-02-06T09:29:42.758Z,85.08
2019-02-06T09:32:13.633Z,84.06
2019-02-06T09:34:44.574Z,84.24
2019-02-06T09:37:15.421Z,83.99
2019-02-06T09:39:46.326Z,83.96
2019-02-06T09:42:17.202Z,83.46
2019-02-06T09:44:48.193Z,83.15
2019-02-06T09:47:19.157Z,82.77
2019-02-06T09:49:50.090Z,82.03
2019-02-06T09:52:20.936Z,82.15
2019-02-06T09:54:51.827Z,82.47
2019-02-06T09:57:23.030Z,82.52
2019-02-06T09:59:54.106Z,82.98
2019-02-06T10:02:26.015Z,83.11
2019-02-06T10:04:57.017Z,82.23
2019-02-06T10:07:27.893Z,81.51
2019-02-06T10:09:59.290Z,81.83
2019-02-06T10:12:30.105Z,81.40
2019-02-06T10:15:01.085Z,82.27
2019-02-06T10:17:31.957Z,82.06
2019-02-06T10:20:02.951Z,81.73
2019-02-06T10:22:33.749Z,81.18
2019-02-06T10:25:05.420Z,80.90
2019-02-06T10:27:36.419Z,80.73
2019-02-06T10:30:09.174Z,81.08
2019-02-06T10:32:39.965Z,80.32
2019-02-06T10:35:11.114Z,80.15
2019-02-06T10:37:42.023Z,79.08
2019-02-06T10:40:13.144Z,79.86
2019-02-06T10:42:44.012Z,79.21
2019-02-06T10:45:15.495Z,79.97
2019-02-06T10:47:47.621Z,78.71
2019-02-06T10:50:21.271Z,79.39
2019-02-06T10:52:52.180Z,79.48
2019-02-06T10:55:23.365Z,79.27
2019-02-06T10:57:54.261Z,78.66
2019-02-06T11:00:31.500Z,78.97
2019-02-06T11:03:02.384Z,78.48
2019-02-06T11:05:33.277Z,78.60
2019-02-06T11:08:04.344Z,77.88
2019-02-06T11:10:35.599Z,78.06
2019-02-06T11:13:07.032Z,77.25
2019-02-06T11:15:38.364Z,76.70
2019-02-06T11:18:09.435Z,76.25
2019-02-06T11:20:40.747Z,75.69
2019-02-06T11:23:11.729Z,77.31
2019-02-06T11:25:42.834Z,76.22
2019-02-06T11:28:14.209Z,75.49
2019-02-06T11:30:45.402Z,75.08
2019-02-06T11:33:16.312Z,75.02
2019-02-06T11:35:47.298Z,73.35
2019-02-06T11:38:18.285Z,74.26
2019-02-06T11:40:49.297Z,75.86
2019-02-06T11:43:20.360Z,74.86
2019-02-06T11:45:51.469Z,75.13
2019-02-06T11:48:22.546Z,73.94
2019-02-06T11:50:53.625Z,72.94
2019-02-06T11:53:26.594Z,73.71
2019-02-06T11:55:58.229Z,72.63
2019-02-06T11:58:29.351Z,72.81
2019-02-06T12:01:22.638Z,72.63
2019-02-06T12:03:54.629Z,73.23
2019-02-06T12:06:26.310Z,70.88
2019-02-06T12:08:57.213Z,71.06
2019-02-06T12:11:28.196Z,70.67
2019-02-06T12:13:59.084Z,69.91
2019-02-06T12:16:30.264Z,70.73
2019-02-06T12:19:01.266Z,68.89
2019-02-06T12:21:32.371Z,69.83
2019-02-06T12:24:03.348Z,68.41
2019-02-06T12:26:34.395Z,67.96
2019-02-06T12:29:05.332Z,68.21
2019-02-06T12:31:36.624Z,68.97
2019-02-06T12:34:07.615Z,68.72
2019-02-06T12:36:38.608Z,66.33
2019-02-06T12:39:11.026Z,66.59
2019-02-06T12:41:42.417Z,66.97
2019-02-06T12:44:13.303Z,67.18
2019-02-06T12:46:44.620Z,67.23
2019-02-06T12:49:15.487Z,66.10
2019-02-06T12:51:46.481Z,66.88
2019-02-06T12:54:17.363Z,66.55
2019-02-06T12:56:48.277Z,65.62
2019-02-06T12:59:19.150Z,67.62
2019-02-06T13:01:50.042Z,66.74
2019-02-06T13:04:20.905Z,66.13
2019-02-06T13:06:51.883Z,67.85
2019-02-06T13:09:22.701Z,67.27
2019-02-06T13:11:53.700Z,67.27
2019-02-06T13:14:24.865Z,68.28
2019-02-06T13:16:55.968Z,68.32
2019-02-06T13:19:26.848Z,68.47
2019-02-06T13:21:58.203Z,68.02
2019-02-06T13:24:29.077Z,68.66
2019-02-06T13:27:00.132Z,69.17
2019-02-06T13:29:31.018Z,68.44
2019-02-06T13:32:02.110Z,67.55
2019-02-06T13:34:32.911Z,67.62
2019-02-06T13:37:04.179Z,67.38
2019-02-06T13:39:34.991Z,66.38
2019-02-06T13:42:06.498Z,66.54
2019-02-06T13:44:37.264Z,67.48
2019-02-06T13:47:08.252Z,65.56
2019-02-06T13:49:39.040Z,65.16
2019-02-06T13:52:10.149Z,66.38
2019-02-06T13:54:41.240Z,66.17
2019-02-06T13:57:12.413Z,66.50
2019-02-06T13:59:43.197Z,66.92
2019-02-06T14:02:14.212Z,66.94
2019-02-06T14:04:45.276Z,66.43
2019-02-06T14:07:16.319Z,66.34
2019-02-06T14:09:47.176Z,66.74
2019-02-06T14:12:18.168Z,67.41
2019-02-06T14:14:48.959Z,67.61
2019-02-06T14:17:19.840Z,68.25
2019-02-06T14:19:50.604Z,67.83
2019-02-06T14:22:21.497Z,68.40
2019-02-06T14:25:11.340Z,69.90
2019-02-06T14:27:54.434Z,70.39
2019-02-06T14:30:48.241Z,70.41
2019-02-06T14:34:15.280Z,69.98
2019-02-06T14:37:21.162Z,69.23
2019-02-06T14:40:52.188Z,68.08
2019-02-06T14:44:15.760Z,68.98
2019-02-06T14:47:29.668Z,69.21
2019-02-06T14:50:50.313Z,67.41
2019-02-06T14:53:50.027Z,68.18
2019-02-06T14:57:05.251Z,67.54
2019-02-06T15:00:05.016Z,64.82
2019-02-06T15:03:15.887Z,64.37
2019-02-06T15:06:40.180Z,63.85
2019-02-06T15:09:47.367Z,61.27
2019-02-06T15:12:46.737Z,66.44
2019-02-06T15:15:30.592Z,67.82
2019-02-06T15:18:36.447Z,68.20
2019-02-06T15:21:53.809Z,69.10
2019-02-06T15:24:54.503Z,69.22
2019-02-06T15:28:08.174Z,71.01
2019-02-06T15:31:38.200Z,72.03
2019-02-06T15:34:36.891Z,72.62
2019-02-06T15:37:41.592Z,72.98
2019-02-06T15:41:02.942Z,73.35
2019-02-06T15:44:00.041Z,73.35
2019-02-06T15:47:03.397Z,73.69
2019-02-06T15:50:26.705Z,73.81
2019-02-06T15:53:39.377Z,74.17
2019-02-06T15:56:53.184Z,74.06
2019-02-06T16:00:20.578Z,73.70
2019-02-06T16:03:52.857Z,73.89
2019-02-06T16:06:53.625Z,74.14
2019-02-06T16:10:10.338Z,74.38
2019-02-06T16:13:22.510Z,74.35
2019-02-06T16:16:21.323Z,74.59
2019-02-06T16:19:30.127Z,74.82
2019-02-06T16:22:20.319Z,75.34
2019-02-06T16:25:12.555Z,75.86
2019-02-06T16:28:11.377Z,75.97
2019-02-06T16:31:30.948Z,76.14
2019-02-06T16:34:42.315Z,76.29
2019-02-06T16:37:44.087Z,76.57
2019-02-06T16:40:39.153Z,76.88
2019-02-06T16:43:37.050Z,77.09
2019-02-06T16:46:47.208Z,77.10
2019-02-06T16:49:44.260Z,77.12
2019-02-06T16:53:23.395Z,76.98
2019-02-06T16:56:49.529Z,76.85
2019-02-06T17:00:06.346Z,76.71
2019-02-06T17:03:21.234Z,76.70
2019-02-06T17:06:15.764Z,76.76
2019-02-06T17:09:40.815Z,76.49
2019-02-06T17:13:07.543Z,76.61
2019-02-06T17:16:49.486Z,76.98
2019-02-06T17:20:09.310Z,77.08
2019-02-06T17:23:17.046Z,77.00
2019-02-06T17:26:34.244Z,76.75
2019-02-06T17:29:35.315Z,76.89
2019-02-06T17:32:35.198Z,76.91
2019-02-06T17:35:20.320Z,77.37
2019-02-06T17:38:24.421Z,77.72
2019-02-06T17:41:25.979Z,77.56
2019-02-06T17:44:23.334Z,78.05
2019-02-06T17:47:33.812Z,78.28
2019-02-06T17:51:02.082Z,78.14
2019-02-06T17:54:16.337Z,78.07
2019-02-06T17:56:47.511Z,77.76
2019-02-06T17:59:18.521Z,77.64
2019-02-06T18:01:54.733Z,77.33
2019-02-06T18:04:38.535Z,77.68
2019-02-06T18:07:09.712Z,77.44
2019-02-06T18:09:41.753Z,77.39
2019-02-06T18:12:12.812Z,77.79
2019-02-06T18:14:43.724Z,77.87
2019-02-06T18:17:14.827Z,77.50
2019-02-06T18:19:45.500Z,78.28
2019-02-06T18:22:17.210Z,78.64
2019-02-06T18:24:48.095Z,78.84
2019-02-06T18:27:20.120Z,79.06
2019-02-06T18:29:50.984Z,78.76
2019-02-06T18:32:21.991Z,78.52
2019-02-06T18:34:52.755Z,78.70
2019-02-06T18:37:23.743Z,78.72
2019-02-06T18:39:54.752Z,79.53
2019-02-06T18:42:25.746Z,79.69
2019-02-06T18:44:56.511Z,79.62
2019-02-06T18:47:27.774Z,79.31
2019-02-06T18:49:58.687Z,79.57
2019-02-06T18:52:32.347Z,80.11
2019-02-06T18:55:03.353Z,80.26
2019-02-06T18:57:34.339Z,79.80
2019-02-06T19:00:07.821Z,79.71
2019-02-06T19:02:38.983Z,80.50
2019-02-06T19:05:11.230Z,80.01
2019-02-06T19:07:42.305Z,80.28
2019-02-06T19:10:14.503Z,80.70
2019-02-06T19:12:47.969Z,80.90
2019-02-06T19:15:18.964Z,80.86
2019-02-06T19:17:50.639Z,80.76
2019-02-06T19:20:21.518Z,80.69
2019-02-06T19:22:52.615Z,80.42
2019-02-06T19:25:24.015Z,80.55
2019-02-06T19:27:56.291Z,80.45
2019-02-06T19:30:30.718Z,80.51
2019-02-06T19:33:02.650Z,80.28
2019-02-06T19:35:33.527Z,80.36
2019-02-06T19:38:04.621Z,80.37
2019-02-06T19:40:35.692Z,80.63
2019-02-06T19:43:07.778Z,80.50
2019-02-06T19:45:39.335Z,80.36
2019-02-06T19:48:16.302Z,80.75
2019-02-06T19:50:43.238Z,80.60
2019-02-06T19:53:14.258Z,80.55
2019-02-06T19:55:45.232Z,80.36
2019-02-06T19:58:16.412Z,80.37
2019-02-06T20:00:47.606Z,80.83
2019-02-06T20:03:18.723Z,80.92
2019-02-06T20:05:49.600Z,80.80
2019-02-06T20:08:21.001Z,80.71
2019-02-06T20:10:51.870Z,80.88
2019-02-06T20:13:22.869Z,81.04
2019-02-06T20:15:54.175Z,80.68
2019-02-06T20:18:25.073Z,80.69
2019-02-06T20:20:55.930Z,81.19
2019-02-06T20:23:26.984Z,81.32
2019-02-06T20:25:58.135Z,81.69
2019-02-06T20:28:29.309Z,82.03
2019-02-06T20:31:00.791Z,82.42
2019-02-06T20:33:31.917Z,82.92
2019-02-06T20:36:02.801Z,82.50
2019-02-06T20:38:34.044Z,82.14
2019-02-06T20:41:05.095Z,81.68
2019-02-06T20:43:36.081Z,81.46
2019-02-06T20:46:07.364Z,81.61
2019-02-06T20:48:38.676Z,81.46
2019-02-06T20:51:27.481Z,81.20
2019-02-06T20:53:58.486Z,81.36
2019-02-06T20:56:29.813Z,81.44
2019-02-06T20:59:00.872Z,82.09
2019-02-06T21:01:31.760Z,82.65
2019-02-06T21:04:02.812Z,82.84
2019-02-06T21:06:33.638Z,82.97
2019-02-06T21:09:05.408Z,82.86
2019-02-06T21:11:37.953Z,82.29
2019-02-06T21:14:09.335Z,82.33
2019-02-06T21:16:40.257Z,82.26
2019-02-06T21:19:11.197Z,82.32
2019-02-06T21:21:42.009Z,82.26
2019-02-06T21:24:13.209Z,82.16
2019-02-06T21:26:44.576Z,82.50
2019-02-06T21:29:16.595Z,82.84
2019-02-06T21:31:47.518Z,83.14
2019-02-06T21:34:18.558Z,83.13
2019-02-06T21:36:49.712Z,83.12
2019-02-06T21:39:20.772Z,82.99
2019-02-06T21:41:51.492Z,82.96
2019-02-06T21:44:22.373Z,82.42
2019-02-06T21:46:53.245Z,82.18
2019-02-06T21:49:24.229Z,82.49
2019-02-06T21:51:55.037Z,82.58
2019-02-06T21:54:25.937Z,82.61
2019-02-06T21:56:56.914Z,82.88
2019-02-06T21:59:27.942Z,83.07
2019-02-06T22:01:58.902Z,82.78
2019-02-06T22:04:31.498Z,82.47
2019-02-06T22:07:02.287Z,82.48
2019-02-06T22:09:33.232Z,82.27
2019-02-06T22:12:04.079Z,82.81
2019-02-06T22:14:35.372Z,83.22
2019-02-06T22:17:06.661Z,83.20
2019-02-06T22:19:37.668Z,83.06
2019-02-06T22:22:08.454Z,83.07
2019-02-06T22:24:39.424Z,83.06
2019-02-06T22:27:10.212Z,82.79
2019-02-06T22:29:41.495Z,82.65
2019-02-06T22:32:12.304Z,83.02
2019-02-06T22:34:43.283Z,83.43
2019-02-06T22:37:14.069Z,83.11
2019-02-06T22:39:45.148Z,82.90
2019-02-06T22:42:16.266Z,82.98
2019-02-06T22:44:47.369Z,82.64
2019-02-06T22:47:18.225Z,82.92
2019-02-06T22:49:49.116Z,82.95
2019-02-06T22:52:22.862Z,82.62
2019-02-06T22:54:52.965Z,83.21
2019-02-06T22:57:23.825Z,82.70
2019-02-06T22:59:54.769Z,82.68
2019-02-06T23:02:25.719Z,82.81
2019-02-06T23:04:56.620Z,83.22
2019-02-06T23:07:27.681Z,83.29
2019-02-06T23:09:58.785Z,83.12
2019-02-06T23:12:29.589Z,82.94
2019-02-06T23:15:00.570Z,83.00
2019-02-06T23:17:31.539Z,82.94
2019-02-06T23:20:02.729Z,83.31
2019-02-06T23:22:34.060Z,83.41
2019-02-06T23:25:06.119Z,83.13
2019-02-06T23:27:37.033Z,82.78
2019-02-06T23:30:08.542Z,82.64
2019-02-06T23:32:39.548Z,82.90
2019-02-06T23:35:10.618Z,83.40
2019-02-06T23:37:41.605Z,82.97
2019-02-06T23:40:12.723Z,82.61
2019-02-06T23:42:43.855Z,82.86
2019-02-06T23:45:15.264Z,83.05
2019-02-06T23:47:46.508Z,83.01
2019-02-06T23:50:17.416Z,82.80
2019-02-06T23:52:48.274Z,82.69
2019-02-06T23:55:19.155Z,83.13
2019-02-06T23:57:50.060Z,82.97
